Huvudsida
METAR-TAF:

METAR-TAF

Flygplatser :

Catania-Fontanarossas flygplats

Catania, Italien

latitud: 37-28N, longitud: 015-03E, höjd: 11 m

Aktuellt väderrapport

Denna rapport gjordes för 18 minuter sedan, klockan 22:20 UTC
Vind 3 kt från nord/nordost
Temperatur 16°C
Fuktighet 88%
Tryck 1014 hPa
Sikt 10 km eller mer
Inga moln under 1 500 m eller inga cumulonimbus

METAR: LICC 152220Z 03003KT CAVOK 16/14 Q1014

Tid: 23:38 (22:38 UTC)

Väderprognos

Denna rapport gjordes för 5 timmar och 38 minuter sedan, klockan 17:00 UTC
Prognos gäller från 15 kl. 18 UTC till 16 kl. 18 UTC
Vind 6 kt varierande vindriktning
Sikt 10 km eller mer
Spridda moln på en höjd av 4000 ft
Blir
från 16 kl. 08 UTC till 16 kl. 10 UTC
Vind 16 kt från ost/sydost

TAF: LICC 151700Z 1518/1618 VRB06KT 9999 SCT040 BECMG 1608/1610 12016KT

Aktuella väderrapporter och prognoser från 4000 flygplatser (METAR- och TAF-rapporter).

De tillgängliga stationerna syns som gula och röda prickar på kartan.

För musen över prickarna för att se namnen på stationerna.

Klicka sedan för att få väderrapporter och prognoser.

För att ändra kartan: Klicka på de gröna knapparna med ett svart kors på för att zooma in; den gröna knappen med ett streck på för att zooma ut; eller på de gröna pilarna för angränsande kartor.


METAR-TAF: